Time;durP1;ratioP1;P1;durP2;ratioP2;P2;SDS_P1;SDS_P2;PMS_P1;PMS_P2;Temp;Humidity;BMP_temperature;BMP_pressure;BME280_temperature;BME280_humidity;BME280_pressure;Samples;Min_cycle;Max_cycle;Signal;HPM_P1;HPM_P2
2023/05/29 00:01:25;;;;;;;8.50;4.30;;;;;;;12.39;79.34;102189.47;5031917;28;20033;-87
2023/05/29 00:03:51;;;;;;;10.07;4.33;;;;;;;12.34;81.18;102206.84;5031827;28;20037;-89
2023/05/29 00:06:16;;;;;;;8.18;3.70;;;;;;;12.27;80.46;102210.34;5032315;28;20034;-88
2023/05/29 00:08:42;;;;;;;11.27;4.40;;;;;;;12.04;81.10;102206.84;5031600;28;20025;-86
2023/05/29 00:11:08;;;;;;;13.03;4.50;;;;;;;11.91;81.75;102218.06;5032708;28;20099;-87
2023/05/29 00:13:33;;;;;;;12.20;3.77;;;;;;;11.92;79.50;102205.94;5031406;28;20025;-87
2023/05/29 00:16:04;;;;;;;9.63;3.30;;;;;;;11.92;79.90;102218.97;5032644;28;20022;-87
2023/05/29 00:18:30;;;;;;;7.03;2.70;;;;;;;11.94;78.65;102212.88;5032386;28;20050;-87
2023/05/29 00:20:55;;;;;;;7.57;2.90;;;;;;;11.88;79.05;102205.94;5012387;28;20073;-87
2023/05/29 00:23:21;;;;;;;11.73;3.60;;;;;;;11.81;80.71;102214.63;5012371;28;20026;-88
2023/05/29 00:25:46;;;;;;;13.57;3.63;;;;;;;11.70;80.25;102211.13;5012769;28;20030;-87
2023/05/29 00:28:12;;;;;;;12.80;3.93;;;;;;;11.65;81.36;102215.44;5024398;28;20034;-88
2023/05/29 00:30:39;;;;;;;11.63;3.87;;;;;;;11.64;80.08;102221.50;5031498;28;20045;-88
2023/05/29 00:33:05;;;;;;;8.88;3.30;;;;;;;11.62;79.90;102221.50;5032305;28;20036;-87
2023/05/29 00:35:33;;;;;;;10.20;3.30;;;;;;;11.51;80.48;102213.66;5031150;28;20026;-86
2023/05/29 00:38:01;;;;;;;11.95;3.95;;;;;;;11.52;80.16;102224.94;5032212;28;20037;-86
2023/05/29 00:40:27;;;;;;;7.60;3.13;;;;;;;11.46;79.52;102227.50;5031812;28;20036;-86
2023/05/29 00:42:53;;;;;;;7.57;3.17;;;;;;;11.47;78.31;102226.66;5031004;28;20034;-87
2023/05/29 00:45:19;;;;;;;7.97;2.70;;;;;;;11.46;78.22;102231.00;5032242;28;20075;-87
2023/05/29 00:47:45;;;;;;;;;;;;;;;11.42;78.13;102234.44;5031801;28;20072;-86
2023/05/29 00:50:13;;;;;;;8.37;2.80;;;;;;;11.33;78.08;102234.41;5032533;28;19940;-87
2023/05/29 00:52:39;;;;;;;13.20;3.28;;;;;;;11.33;78.01;102237.84;5034961;28;20112;-85
2023/05/29 00:55:11;;;;;;;11.70;2.80;;;;;;;11.35;77.38;102237.88;5035923;28;20030;-87
2023/05/29 00:57:39;;;;;;;7.95;2.78;;;;;;;11.31;78.01;102251.72;5033901;28;20038;-86
2023/05/29 01:00:07;;;;;;;8.85;2.50;;;;;;;11.21;77.83;102241.28;5035214;28;20072;-87
2023/05/29 01:02:36;;;;;;;12.93;3.25;;;;;;;11.13;77.97;102249.03;5034847;28;20026;-87
2023/05/29 01:05:01;;;;;;;9.23;2.85;;;;;;;11.11;77.54;102248.16;5034208;28;20072;-88
2023/05/29 01:07:26;;;;;;;10.03;3.13;;;;;;;11.06;78.02;102255.09;5035152;28;20057;-86
2023/05/29 01:09:52;;;;;;;9.70;2.70;;;;;;;11.03;78.00;102247.25;5034133;28;20022;-87
2023/05/29 01:12:39;;;;;;;7.93;2.77;;;;;;;11.00;78.02;102254.19;5035214;28;20026;-87
2023/05/29 01:15:25;;;;;;;9.40;2.70;;;;;;;10.93;78.58;102263.66;5035361;28;20025;-87
2023/05/29 01:18:19;;;;;;;13.40;3.10;;;;;;;10.86;78.45;102260.16;5034200;28;20052;-86
2023/05/29 01:20:52;;;;;;;11.52;2.92;;;;;;;10.85;78.13;102261.00;5034586;28;20029;-87
2023/05/29 01:23:29;;;;;;;13.95;3.30;;;;;;;10.67;79.60;102261.75;5034932;28;20466;-86
2023/05/29 01:25:58;;;;;;;12.25;3.33;;;;;;;10.68;78.80;102260.03;5034034;28;20117;-87
2023/05/29 01:28:26;;;;;;;8.35;2.85;;;;;;;10.71;78.36;102262.63;5035225;28;20040;-87
2023/05/29 01:30:54;;;;;;;9.93;2.70;;;;;;;10.61;79.11;102253.94;5035695;28;20041;-86
2023/05/29 01:33:19;;;;;;;10.82;2.70;;;;;;;10.60;79.96;102260.84;5034621;28;20108;-87
2023/05/29 01:35:45;;;;;;;9.53;2.60;;;;;;;10.58;78.77;102259.97;5033385;28;20076;-87
2023/05/29 01:38:10;;;;;;;10.23;2.73;;;;;;;10.54;78.69;102253.00;5033899;28;20120;-87
2023/05/29 01:40:36;;;;;;;8.47;2.50;;;;;;;10.53;78.86;102253.88;5034455;28;20076;-88
2023/05/29 01:43:02;;;;;;;7.20;2.83;;;;;;;10.53;79.12;102268.59;5035097;28;20477;-87
2023/05/29 01:45:28;;;;;;;6.40;2.37;;;;;;;10.53;78.70;102266.84;5033761;28;20025;-86
2023/05/29 01:47:57;;;;;;;6.05;2.40;;;;;;;10.53;78.37;102256.47;5034201;28;20430;-86
2023/05/29 01:50:24;;;;;;;6.82;2.22;;;;;;;10.50;78.97;102266.81;5034295;28;20074;-87
2023/05/29 01:52:52;;;;;;;8.45;2.65;;;;;;;10.45;80.00;102253.81;5033649;28;20041;-88
2023/05/29 01:55:18;;;;;;;9.30;2.88;;;;;;;10.44;79.08;102248.59;5034523;28;20490;-87
2023/05/29 01:57:45;;;;;;;11.07;2.53;;;;;;;10.39;80.17;102248.56;5033831;28;20068;-86
2023/05/29 02:00:11;;;;;;;;;;;;;;;10.41;80.18;102256.38;5033600;28;20084;-86
2023/05/29 02:02:40;;;;;;;10.73;2.90;;;;;;;10.34;80.07;102253.69;5033768;28;19913;-86
2023/05/29 02:05:07;;;;;;;8.10;2.75;;;;;;;10.32;79.67;102254.53;5034122;28;20025;-86
2023/05/29 02:07:33;;;;;;;7.10;2.60;;;;;;;10.29;79.88;102245.00;5032727;28;20033;-86
2023/05/29 02:09:58;;;;;;;8.07;2.17;;;;;;;10.32;79.60;102257.13;5033721;28;20592;-86
2023/05/29 02:12:24;;;;;;;11.13;2.80;;;;;;;10.30;78.80;102267.50;5034297;28;20075;-87
2023/05/29 02:14:49;;;;;;;9.23;2.50;;;;;;;10.26;79.30;102257.06;5032963;28;20381;-86
2023/05/29 02:17:19;;;;;;;8.17;2.50;;;;;;;10.24;79.59;102258.78;5033818;28;20084;-86
2023/05/29 02:19:44;;;;;;;3.60;1.90;;;;;;;10.24;78.99;102258.78;5033534;28;20120;-87
2023/05/29 02:22:15;;;;;;;9.70;2.50;;;;;;;10.22;79.15;102260.50;5033689;28;20018;-87
2023/05/29 02:24:41;;;;;;;7.90;2.42;;;;;;;10.19;79.61;102256.16;5033696;28;20028;-88
2023/05/29 02:27:06;;;;;;;7.53;2.10;;;;;;;10.15;79.81;102264.75;5032576;28;20132;-87
2023/05/29 02:29:32;;;;;;;8.73;2.37;;;;;;;10.11;79.56;102261.25;5033535;28;20029;-86
2023/05/29 02:31:57;;;;;;;6.93;2.33;;;;;;;10.05;79.98;102262.06;5033865;28;20030;-87
2023/05/29 02:34:23;;;;;;;7.63;2.40;;;;;;;10.08;79.70;102273.34;5032996;28;20525;-86
2023/05/29 02:36:54;;;;;;;4.70;2.10;;;;;;;10.08;79.96;102270.75;5032883;28;20441;-86
2023/05/29 02:39:22;;;;;;;5.10;1.90;;;;;;;10.05;78.78;102274.19;5033698;28;20021;-87
2023/05/29 02:41:48;;;;;;;2.90;1.70;;;;;;;10.07;78.29;102271.59;5032062;28;20040;-87
2023/05/29 02:44:13;;;;;;;3.43;1.73;;;;;;;10.07;78.11;102281.97;5033200;28;20378;-86
2023/05/29 02:46:40;;;;;;;7.50;2.10;;;;;;;10.04;78.74;102280.22;5033406;28;20037;-86
2023/05/29 02:49:05;;;;;;;;;;;;;;;10.07;79.45;102279.38;5048275;22;20140;-87
2023/05/29 02:51:32;;;;;;;8.83;2.47;;;;;;;9.99;79.17;102275.00;5053079;28;19966;-85
2023/05/29 02:53:58;;;;;;;7.15;2.30;;;;;;;9.97;80.06;102281.88;5053238;28;20029;-88
2023/05/29 02:56:23;;;;;;;5.33;2.10;;;;;;;9.95;79.36;102282.72;5052350;28;20092;-86
2023/05/29 02:58:49;;;;;;;7.97;2.40;;;;;;;9.90;79.53;102287.88;5052026;28;20040;-86
2023/05/29 03:01:15;;;;;;;7.22;2.67;;;;;;;9.86;79.06;102286.94;5052968;28;20021;-86
2023/05/29 03:03:40;;;;;;;8.37;2.47;;;;;;;9.85;80.02;102289.53;5051734;28;20036;-87
2023/05/29 03:06:16;;;;;;;7.10;2.13;;;;;;;9.81;79.41;102282.56;5052799;28;20123;-86
2023/05/29 03:08:44;;;;;;;6.85;2.13;;;;;;;9.80;79.98;102283.41;5052571;28;20043;-86
2023/05/29 03:11:10;;;;;;;10.07;2.35;;;;;;;9.72;80.79;102276.44;5050761;28;20082;-87
2023/05/29 03:13:38;;;;;;;13.80;2.90;;;;;;;9.60;81.92;102280.63;5052212;28;20079;-86
2023/05/29 03:16:04;;;;;;;10.32;2.40;;;;;;;9.58;80.28;102277.97;5052633;28;20025;-86
2023/05/29 03:18:29;;;;;;;6.13;2.20;;;;;;;9.57;80.94;102278.84;5051922;28;20048;-86
2023/05/29 03:20:55;;;;;;;6.93;2.30;;;;;;;9.57;80.66;102284.91;5052680;28;20462;-87
2023/05/29 03:23:20;;;;;;;7.43;2.20;;;;;;;9.56;81.40;102284.91;5052118;28;20052;-85
2023/05/29 03:25:46;;;;;;;5.43;1.90;;;;;;;9.54;79.97;102284.84;5052338;28;20067;-86
2023/05/29 03:28:11;;;;;;;9.57;2.13;;;;;;;9.47;82.42;102285.66;5052254;28;20136;-87
2023/05/29 03:30:36;;;;;;;8.90;2.63;;;;;;;9.45;81.34;102287.34;5051592;28;20036;-86
2023/05/29 03:33:03;;;;;;;7.83;2.37;;;;;;;9.46;81.39;102285.63;5052658;28;20055;-87
2023/05/29 03:35:31;;;;;;;6.45;2.10;;;;;;;9.48;80.69;102291.69;5053079;28;20025;-85
2023/05/29 03:37:56;;;;;;;7.05;2.10;;;;;;;9.47;82.84;102296.00;5051758;28;20108;-85
2023/05/29 03:40:22;;;;;;;5.93;2.10;;;;;;;9.42;82.40;102288.19;5052515;28;20175;-86
2023/05/29 03:42:48;;;;;;;9.57;2.47;;;;;;;9.41;82.04;102291.63;5052190;28;20029;-87
2023/05/29 03:45:13;;;;;;;6.63;2.00;;;;;;;9.41;81.79;102290.72;5052252;28;20095;-86
2023/05/29 03:47:39;;;;;;;7.13;2.00;;;;;;;9.43;82.17;102292.50;5052223;28;20060;-86
2023/05/29 03:50:05;;;;;;;8.57;2.40;;;;;;;9.41;83.42;102295.91;5052491;28;20056;-86
2023/05/29 03:52:30;;;;;;;11.87;3.00;;;;;;;9.29;83.94;102294.03;5051347;28;20078;-86
2023/05/29 03:54:55;;;;;;;6.90;2.00;;;;;;;9.31;82.57;102294.06;5052305;28;20027;-86
2023/05/29 03:57:20;;;;;;;8.10;2.03;;;;;;;9.33;84.22;102303.63;5051858;28;20025;-86
2023/05/29 03:59:46;;;;;;;6.73;2.30;;;;;;;9.31;84.15;102299.25;5051202;28;20029;-86
2023/05/29 04:02:11;;;;;;;7.40;2.33;;;;;;;9.35;82.32;102306.22;5051906;28;20032;-86
2023/05/29 04:04:36;;;;;;;5.83;2.17;;;;;;;9.42;82.52;102310.63;5052227;28;20503;-86
2023/05/29 04:07:02;;;;;;;7.03;2.10;;;;;;;9.45;82.80;102315.00;5051350;28;20465;-86
2023/05/29 04:09:27;;;;;;;6.60;1.97;;;;;;;9.44;82.98;102316.69;5052341;28;20033;-86
2023/05/29 04:11:54;;;;;;;6.47;2.10;;;;;;;9.45;82.96;102315.00;5051915;28;20041;-86
2023/05/29 04:14:19;;;;;;;8.68;2.00;;;;;;;9.45;82.72;102317.59;5051607;28;20100;-85
2023/05/29 04:16:45;;;;;;;7.40;2.27;;;;;;;9.45;83.59;102315.00;5052068;28;20494;-86
2023/05/29 04:19:10;;;;;;;4.20;1.90;;;;;;;9.50;82.73;102327.16;5052134;28;20501;-86
2023/05/29 04:21:35;;;;;;;8.00;2.03;;;;;;;9.47;83.66;102323.63;5051085;28;20032;-86
2023/05/29 04:24:01;;;;;;;7.53;2.30;;;;;;;9.49;83.10;102324.53;5051802;28;20032;-87
2023/05/29 04:26:26;;;;;;;11.30;3.10;;;;;;;9.41;84.34;102322.72;5055725;28;20028;-87
2023/05/29 04:28:57;;;;;;;12.03;3.17;;;;;;;9.45;83.38;102330.53;5055294;28;20381;-86
2023/05/29 04:31:26;;;;;;;6.43;2.08;;;;;;;9.49;82.95;102322.81;5056025;28;20020;-88
2023/05/29 04:33:54;;;;;;;4.35;1.98;;;;;;;9.55;82.54;102324.63;5054550;28;20028;-86
2023/05/29 04:36:26;;;;;;;10.07;2.35;;;;;;;9.57;82.62;102331.56;5055696;28;20017;-89
2023/05/29 04:38:53;;;;;;;8.23;2.30;;;;;;;9.58;83.41;102330.72;5056103;28;20464;-83
2023/05/29 04:41:18;;;;;;;5.05;1.92;;;;;;;9.59;83.21;102331.56;5054582;28;20033;-85
2023/05/29 04:43:43;;;;;;;13.77;2.87;;;;;;;9.55;83.22;102335.00;5055710;28;20070;-86
2023/05/29 04:46:12;;;;;;;8.33;2.50;;;;;;;9.58;83.64;102337.59;5055770;28;20025;-86
2023/05/29 04:48:40;;;;;;;7.30;2.17;;;;;;;9.64;83.19;102342.00;5054444;28;20037;-85
2023/05/29 04:51:06;;;;;;;7.60;2.20;;;;;;;9.64;82.41;102335.09;5055341;28;20037;-85
2023/05/29 04:53:32;;;;;;;12.77;3.07;;;;;;;9.61;82.94;102336.78;5055309;28;20037;-85
2023/05/29 04:55:57;;;;;;;9.68;2.33;;;;;;;9.61;82.32;102326.41;5054931;28;20501;-84
2023/05/29 04:58:25;;;;;;;13.10;2.90;;;;;;;9.65;82.48;102335.97;5055625;28;20037;-87
2023/05/29 05:00:51;;;;;;;7.68;2.40;;;;;;;9.69;82.76;102338.59;5055166;28;20090;-86
2023/05/29 05:03:16;;;;;;;14.13;2.87;;;;;;;9.64;82.66;102332.50;5054863;28;20096;-85
2023/05/29 05:05:44;;;;;;;12.03;2.80;;;;;;;9.61;82.97;102326.41;5053926;28;20435;-86
2023/05/29 05:08:11;;;;;;;14.32;2.90;;;;;;;9.70;82.59;102339.50;5055219;28;20029;-87
2023/05/29 05:10:36;;;;;;;;;;;;;;;9.76;82.59;102336.97;5054739;28;20100;-86
2023/05/29 05:13:02;;;;;;;14.00;3.40;;;;;;;9.78;82.45;102339.59;5054932;28;20325;-86
2023/05/29 05:15:28;;;;;;;16.07;3.63;;;;;;;9.75;82.24;102340.41;5055585;28;20029;-85
2023/05/29 05:17:53;;;;;;;14.73;3.23;;;;;;;9.74;82.82;102343.84;5054092;28;20029;-87
2023/05/29 05:20:18;;;;;;;14.27;3.20;;;;;;;9.80;82.12;102350.81;5055236;28;20086;-86
2023/05/29 05:22:44;;;;;;;17.97;3.87;;;;;;;9.80;81.62;102356.00;5054723;28;20025;-88
2023/05/29 05:25:09;;;;;;;13.07;3.20;;;;;;;9.78;81.99;102344.78;5054729;28;20075;-89
2023/05/29 05:27:35;;;;;;;12.60;2.90;;;;;;;9.86;81.64;102356.97;5054831;28;20029;-86
2023/05/29 05:30:01;;;;;;;9.13;2.80;;;;;;;9.97;81.13;102364.00;5054325;28;20465;-87
2023/05/29 05:32:26;;;;;;;14.60;3.13;;;;;;;10.05;81.06;102368.44;5055140;28;20090;-87
2023/05/29 05:34:51;;;;;;;11.13;2.90;;;;;;;10.15;80.83;102369.41;5054685;28;20029;-87
2023/05/29 05:37:17;;;;;;;13.50;2.87;;;;;;;10.23;80.66;102366.03;5054073;28;20017;-87
2023/05/29 05:39:43;;;;;;;14.93;3.37;;;;;;;10.30;80.08;102367.84;5055031;28;20021;-87
2023/05/29 05:42:08;;;;;;;13.43;2.85;;;;;;;10.35;79.39;102364.44;5054560;28;20151;-87
2023/05/29 05:44:33;;;;;;;13.37;2.80;;;;;;;10.39;79.55;102370.56;5053568;28;20104;-84
2023/05/29 05:46:59;;;;;;;15.07;3.23;;;;;;;10.40;78.68;102368.81;5054496;28;20492;-84
2023/05/29 05:49:27;;;;;;;15.93;3.10;;;;;;;10.40;78.45;102366.22;5054074;28;20045;-82
2023/05/29 05:51:52;;;;;;;13.90;3.05;;;;;;;10.43;78.76;102364.53;5053708;28;20021;-81
2023/05/29 05:54:18;;;;;;;14.17;3.00;;;;;;;10.36;78.26;102347.13;5054499;28;20079;-81
2023/05/29 05:56:43;;;;;;;17.10;3.43;;;;;;;10.27;78.05;102358.28;5054352;28;20029;-83
2023/05/29 05:59:08;;;;;;;14.87;2.97;;;;;;;10.35;78.38;102356.66;5053624;28;20385;-84
2023/05/29 06:01:34;;;;;;;17.70;3.20;;;;;;;10.46;77.48;102368.91;5053841;28;20074;-82
2023/05/29 06:03:59;;;;;;;14.43;3.10;;;;;;;10.48;76.94;102354.19;5053892;28;20033;-83
2023/05/29 06:06:24;;;;;;;14.83;3.10;;;;;;;10.50;76.70;102353.38;5053529;28;20079;-84
2023/05/29 06:08:49;;;;;;;13.93;2.90;;;;;;;10.77;76.70;102358.78;5054257;28;20049;-85
2023/05/29 06:11:15;;;;;;;16.37;2.90;;;;;;;11.39;73.59;102357.47;5054431;28;20033;-85
2023/05/29 06:13:40;;;;;;;12.50;2.73;;;;;;;12.12;72.70;102359.50;5052869;28;20024;-84
2023/05/29 06:16:11;;;;;;;12.63;3.03;;;;;;;12.40;69.91;102363.03;5053912;28;20025;-86
2023/05/29 06:18:37;;;;;;;13.77;3.03;;;;;;;12.15;70.65;102368.22;5053556;28;20036;-85
2023/05/29 06:21:02;;;;;;;11.83;2.77;;;;;;;12.12;71.29;102368.22;5052902;28;20024;-84
2023/05/29 06:23:27;;;;;;;10.97;2.80;;;;;;;12.18;71.90;102372.56;5054037;28;20028;-84
2023/05/29 06:25:53;;;;;;;10.47;2.57;;;;;;;12.42;70.60;102376.94;5053816;28;20444;-86
2023/05/29 06:28:18;;;;;;;8.00;2.23;;;;;;;12.63;71.17;102383.03;5053484;28;20037;-87
2023/05/29 06:30:43;;;;;;;12.37;2.83;;;;;;;13.00;67.68;102377.84;5053503;28;20027;-85
2023/05/29 06:33:12;;;;;;;10.67;2.80;;;;;;;13.21;67.94;102384.78;5053384;28;20021;-85
2023/05/29 06:35:37;;;;;;;10.02;2.67;;;;;;;13.57;67.76;102388.16;5052853;28;20033;-84
2023/05/29 06:38:02;;;;;;;9.27;2.27;;;;;;;13.93;67.05;102389.78;5053170;28;20075;-88
2023/05/29 06:40:28;;;;;;;10.33;2.40;;;;;;;14.15;64.45;102380.09;5052539;28;20040;-86
2023/05/29 06:42:53;;;;;;;7.60;2.40;;;;;;;14.32;65.64;102380.84;5053084;28;20112;-86
2023/05/29 06:45:18;;;;;;;11.37;2.73;;;;;;;14.44;60.85;102376.44;5053312;28;20379;-85
2023/05/29 06:47:44;;;;;;;10.63;2.60;;;;;;;14.39;62.26;102381.69;5051395;28;20032;-85
2023/05/29 06:50:10;;;;;;;9.87;2.73;;;;;;;14.23;61.18;102383.53;5053107;28;20401;-86
2023/05/29 06:52:35;;;;;;;12.90;2.70;;;;;;;13.95;62.93;102388.03;5052495;28;20028;-85
2023/05/29 06:55:03;;;;;;;10.10;2.53;;;;;;;13.88;62.34;102388.06;5052224;28;20029;-86
2023/05/29 06:57:29;;;;;;;9.63;2.42;;;;;;;13.82;62.76;102385.47;5053063;28;20025;-87
2023/05/29 06:59:55;;;;;;;6.77;1.90;;;;;;;13.92;62.99;102386.31;5053360;28;20032;-87
2023/05/29 07:02:20;;;;;;;9.40;2.23;;;;;;;13.97;62.12;102392.38;5052024;28;20500;-83
2023/05/29 07:04:45;;;;;;;8.47;2.60;;;;;;;14.05;63.22;102395.81;5053707;28;20029;-88
2023/05/29 07:07:11;;;;;;;9.37;2.30;;;;;;;14.09;61.04;102398.41;5054059;28;20029;-86
2023/05/29 07:09:36;;;;;;;13.53;3.17;;;;;;;14.00;60.05;102396.72;5052586;28;20047;-86
2023/05/29 07:12:01;;;;;;;11.27;2.70;;;;;;;13.78;60.11;102396.81;5053362;28;20048;-91
2023/05/29 07:14:27;;;;;;;12.70;2.80;;;;;;;13.49;61.58;102396.91;5052980;28;20031;-85
2023/05/29 07:16:52;;;;;;;11.10;2.47;;;;;;;13.44;62.10;102402.13;5052169;28;20028;-84
2023/05/29 07:19:17;;;;;;;9.73;2.20;;;;;;;13.58;63.10;102391.66;5053400;28;20043;-89
2023/05/29 07:21:43;;;;;;;8.17;2.33;;;;;;;13.86;61.00;102388.94;5054141;28;20033;-90
2023/05/29 07:24:08;;;;;;;12.47;2.60;;;;;;;13.92;61.18;102382.81;5052682;28;20382;-88
2023/05/29 07:26:33;;;;;;;9.13;2.50;;;;;;;13.89;62.08;102387.19;5052814;28;20025;-90
2023/05/29 07:28:59;;;;;;;7.87;2.20;;;;;;;14.16;63.07;102392.28;5052717;28;20025;-89
2023/05/29 07:31:24;;;;;;;14.77;3.33;;;;;;;14.14;59.15;102394.03;5052491;28;20056;-91
2023/05/29 07:33:49;;;;;;;14.10;2.97;;;;;;;13.73;59.43;102403.78;5053357;28;20041;-91
2023/05/29 07:36:17;;;;;;;14.10;2.87;;;;;;;13.68;61.46;102400.34;5053782;28;20029;-91
2023/05/29 07:38:42;;;;;;;5.97;1.95;;;;;;;13.91;62.36;102395.03;5053723;28;20043;-86
2023/05/29 07:41:07;;;;;;;9.00;2.47;;;;;;;14.23;61.66;102391.38;5053863;28;20037;-89
2023/05/29 07:43:33;;;;;;;5.07;1.97;;;;;;;14.58;61.34;102402.47;5052436;28;20021;-79
2023/05/29 07:45:58;;;;;;;11.50;2.50;;;;;;;14.71;57.09;102405.91;5053128;28;20381;-91
2023/05/29 07:48:23;;;;;;;10.33;2.70;;;;;;;14.69;59.97;102421.59;5053500;28;20071;-90
2023/05/29 07:50:48;;;;;;;9.57;2.60;;;;;;;14.64;57.59;102413.72;5052768;28;20036;-90
2023/05/29 07:53:14;;;;;;;11.30;2.50;;;;;;;14.51;58.51;102412.09;5053668;28;20370;-90
2023/05/29 07:55:39;;;;;;;8.20;2.43;;;;;;;14.56;58.38;102415.53;5055640;28;20025;-91
2023/05/29 07:58:09;;;;;;;8.10;2.07;;;;;;;14.74;58.43;102417.19;5052677;28;20033;-90
2023/05/29 08:00:34;;;;;;;10.27;2.30;;;;;;;14.83;56.25;102404.03;5056360;28;20021;-89
2023/05/29 08:03:00;;;;;;;9.00;2.23;;;;;;;14.86;56.01;102415.34;5056526;28;20031;-89
2023/05/29 08:05:25;;;;;;;10.63;2.53;;;;;;;14.75;55.62;102418.06;5056262;28;20112;-91
2023/05/29 08:07:51;;;;;;;10.37;2.50;;;;;;;14.62;55.01;102428.56;5056815;28;20036;-89
2023/05/29 08:10:19;;;;;;;12.40;2.77;;;;;;;14.56;55.76;102419.91;5057418;28;20516;-88
2023/05/29 08:12:44;;;;;;;9.23;2.65;;;;;;;14.35;56.28;102420.03;5062524;23;21209;-88
2023/05/29 08:15:10;;;;;;;10.40;2.50;;;;;;;14.01;57.54;102414.13;5056643;28;20112;-89
2023/05/29 08:17:35;;;;;;;11.67;2.60;;;;;;;14.19;56.78;102411.41;5056814;28;20021;-89
2023/05/29 08:20:01;;;;;;;11.07;2.80;;;;;;;14.36;58.07;102418.25;5056953;28;20436;-88
2023/05/29 08:22:29;;;;;;;11.43;2.80;;;;;;;14.42;56.99;102418.25;5057950;28;20100;-89
2023/05/29 08:24:55;;;;;;;12.38;2.90;;;;;;;14.44;56.40;102421.72;5057290;28;20043;-87
2023/05/29 08:27:20;;;;;;;9.27;2.70;;;;;;;14.67;57.00;102429.44;5055963;28;20096;-88
2023/05/29 08:29:46;;;;;;;12.67;2.77;;;;;;;14.85;56.09;102432.81;5056700;28;20469;-89
2023/05/29 08:32:11;;;;;;;8.67;2.60;;;;;;;15.13;56.22;102430.81;5055866;28;20470;-88
2023/05/29 08:34:36;;;;;;;10.00;2.87;;;;;;;15.14;55.49;102429.06;5055523;28;20024;-88
2023/05/29 08:37:02;;;;;;;7.90;2.23;;;;;;;15.27;56.28;102422.84;5056546;28;20037;-87
2023/05/29 08:39:28;;;;;;;9.80;2.40;;;;;;;15.33;54.93;102426.25;5056266;28;20048;-88
2023/05/29 08:42:07;;;;;;;10.60;2.50;;;;;;;15.35;56.41;102429.72;5055203;28;20025;-88
2023/05/29 08:44:33;;;;;;;6.00;2.20;;;;;;;15.48;55.79;102428.72;5056359;28;20078;-87
2023/05/29 08:47:03;;;;;;;7.32;2.30;;;;;;;15.57;55.82;102425.16;5055774;28;20126;-88
2023/05/29 08:49:34;;;;;;;8.75;2.22;;;;;;;15.76;55.53;102431.06;5056416;28;20025;-87
2023/05/29 08:52:16;;;;;;;10.65;2.63;;;;;;;15.94;55.33;102423.88;5056337;28;20389;-88
2023/05/29 08:54:43;;;;;;;5.65;2.20;;;;;;;16.11;54.50;102434.13;5055530;28;20108;-89
2023/05/29 08:57:10;;;;;;;8.82;2.28;;;;;;;16.21;53.80;102433.97;5056647;28;20034;-88
2023/05/29 08:59:37;;;;;;;6.40;2.50;;;;;;;16.36;54.90;102430.31;5055421;28;20032;-87
2023/05/29 09:02:02;;;;;;;9.70;2.60;;;;;;;16.55;52.31;102443.13;5054894;28;20029;-87
2023/05/29 09:04:30;;;;;;;7.83;2.40;;;;;;;16.43;52.50;102440.69;5055094;28;20036;-85
2023/05/29 09:06:58;;;;;;;5.85;2.13;;;;;;;16.46;53.00;102436.25;5055616;28;20025;-88
2023/05/29 09:09:24;;;;;;;10.18;2.70;;;;;;;16.53;52.95;102434.41;5054606;28;20021;-82
2023/05/29 09:11:49;;;;;;;6.67;2.17;;;;;;;16.64;52.43;102437.75;5054085;28;20048;-89
2023/05/29 09:14:33;;;;;;;6.80;2.30;;;;;;;16.70;51.89;102441.16;5056083;28;20100;-92
2023/05/29 09:16:59;;;;;;;10.57;2.78;;;;;;;16.15;49.33;102436.69;5055478;28;20092;-87
2023/05/29 09:19:25;;;;;;;6.03;2.60;;;;;;;16.05;50.43;102438.56;5055698;28;20112;-93
2023/05/29 09:21:51;;;;;;;;;;;;;;;16.27;51.14;102442.66;5055529;28;20037;-87
2023/05/29 09:24:16;;;;;;;10.02;2.55;;;;;;;16.17;49.42;102441.91;5053977;28;19912;-85
2023/05/29 09:26:49;;;;;;;9.93;2.67;;;;;;;16.06;50.98;102439.44;5054528;28;20020;-84
2023/05/29 09:29:15;;;;;;;6.85;2.50;;;;;;;16.00;51.84;102435.16;5054137;28;20532;-87
2023/05/29 09:31:49;;;;;;;5.32;2.15;;;;;;;16.35;51.72;102440.78;5054210;28;20029;-83
2023/05/29 09:34:15;;;;;;;7.65;2.40;;;;;;;16.62;50.02;102450.00;5054110;28;20421;-81
2023/05/29 09:36:40;;;;;;;7.37;2.40;;;;;;;16.70;50.36;102426.28;5053544;28;20065;-82
2023/05/29 09:39:09;;;;;;;5.77;1.97;;;;;;;16.88;49.75;102433.00;5054823;28;20028;-82
2023/05/29 09:41:41;;;;;;;7.22;2.15;;;;;;;17.11;50.84;102435.25;5054348;28;20344;-83
2023/05/29 09:44:10;;;;;;;5.07;1.90;;;;;;;17.39;50.22;102434.78;5053952;28;20100;-82
2023/05/29 09:46:35;;;;;;;5.32;2.17;;;;;;;17.55;49.12;102422.22;5054109;28;20037;-84
2023/05/29 09:49:10;;;;;;;5.80;2.60;;;;;;;17.66;49.22;102429.91;5053992;28;20028;-84
2023/05/29 09:51:36;;;;;;;9.63;2.70;;;;;;;16.89;47.49;102432.13;5053979;28;20365;-83
2023/05/29 09:54:16;;;;;;;9.15;2.50;;;;;;;16.89;50.62;102428.63;5054253;28;20021;-83
2023/05/29 09:56:45;;;;;;;5.97;2.35;;;;;;;17.22;50.32;102434.22;5054110;28;20037;-86
2023/05/29 09:59:11;;;;;;;11.05;2.72;;;;;;;17.06;48.49;102434.47;5053273;28;20532;-85
2023/05/29 10:01:41;;;;;;;6.82;2.40;;;;;;;17.17;50.47;102442.16;5053685;28;20021;-85
2023/05/29 10:04:06;;;;;;;12.55;3.15;;;;;;;16.96;48.74;102422.41;5054151;28;20037;-84
2023/05/29 10:06:33;;;;;;;7.40;2.50;;;;;;;17.25;50.16;102423.66;5052798;28;20034;-85
2023/05/29 10:09:00;;;;;;;8.35;2.40;;;;;;;17.46;48.60;102422.41;5054068;28;20046;-86
2023/05/29 10:11:27;;;;;;;6.53;2.40;;;;;;;17.32;48.15;102435.78;5053442;28;20389;-84
2023/05/29 10:13:54;;;;;;;7.25;2.50;;;;;;;17.28;49.46;102426.22;5053479;28;20064;-83
2023/05/29 10:16:26;;;;;;;;;;;;;;;17.36;47.31;102447.94;5053985;28;20371;-85
2023/05/29 10:18:55;;;;;;;6.63;2.40;;;;;;;17.44;48.24;102432.94;5052426;28;19947;-85
2023/05/29 10:21:21;;;;;;;8.30;2.60;;;;;;;17.20;48.23;102430.75;5053675;28;20032;-85
2023/05/29 10:23:50;;;;;;;8.10;2.45;;;;;;;17.57;48.87;102428.31;5053529;28;20033;-85
2023/05/29 10:26:23;;;;;;;7.97;2.55;;;;;;;17.80;47.47;102421.72;5052681;28;20051;-84
2023/05/29 10:29:26;;;;;;;6.05;2.40;;;;;;;18.00;49.19;102423.09;5053332;28;20025;-84
2023/05/29 10:32:10;;;;;;;10.30;2.30;;;;;;;18.29;47.27;102416.34;5030915;28;20481;-84
2023/05/29 10:34:56;;;;;;;9.48;2.65;;;;;;;18.51;45.64;102425.47;5052699;28;20110;-84
2023/05/29 10:37:31;;;;;;;6.85;2.45;;;;;;;18.49;44.72;102416.75;5053302;28;20100;-85
2023/05/29 10:40:12;;;;;;;5.55;2.30;;;;;;;18.43;45.91;102410.78;5052828;28;20021;-85
2023/05/29 10:43:10;;;;;;;5.35;2.15;;;;;;;18.58;46.16;102428.78;5053125;28;20025;-85
2023/05/29 10:45:49;;;;;;;8.40;2.50;;;;;;;18.62;46.92;102412.06;5050694;28;20044;-85
2023/05/29 10:48:14;;;;;;;8.40;2.45;;;;;;;18.64;44.39;102420.78;5051377;28;20052;-84
2023/05/29 10:50:47;;;;;;;6.07;2.30;;;;;;;18.82;45.54;102421.22;5052930;28;20072;-87
2023/05/29 10:53:17;;;;;;;9.98;2.60;;;;;;;18.53;43.88;102417.53;5053087;28;20033;-84
2023/05/29 10:55:50;;;;;;;8.65;2.50;;;;;;;18.54;45.74;102421.91;5052188;28;20020;-85
2023/05/29 10:58:30;;;;;;;4.45;2.30;;;;;;;18.78;45.02;102403.81;5053041;28;20049;-84
2023/05/29 11:00:58;;;;;;;8.85;2.58;;;;;;;18.68;44.25;102414.56;5052334;28;20173;-85
2023/05/29 11:03:31;;;;;;;9.82;2.50;;;;;;;18.44;45.43;102407.25;5053037;28;20021;-85
2023/05/29 11:06:05;;;;;;;9.25;2.83;;;;;;;18.19;46.11;102407.81;5053081;28;20076;-85
2023/05/29 11:08:45;;;;;;;10.90;2.88;;;;;;;17.67;45.53;102408.00;5052089;28;20035;-86
2023/05/29 11:11:12;;;;;;;10.68;2.72;;;;;;;17.73;47.27;102405.25;5053050;28;20051;-85
2023/05/29 11:13:38;;;;;;;10.48;2.80;;;;;;;17.67;46.22;102400.13;5052108;28;20051;-84
2023/05/29 11:16:19;;;;;;;6.13;2.42;;;;;;;18.10;46.80;102400.97;5050359;28;20060;-83
2023/05/29 11:18:46;;;;;;;9.27;2.50;;;;;;;18.09;45.50;102395.78;5052187;28;20061;-83
2023/05/29 11:21:23;;;;;;;8.10;2.67;;;;;;;18.31;46.56;102397.00;5052486;28;20037;-84
2023/05/29 11:23:50;;;;;;;7.85;2.30;;;;;;;18.61;46.22;102399.81;5051932;28;20017;-84
2023/05/29 11:26:23;;;;;;;4.85;2.25;;;;;;;18.94;47.81;102394.63;5052797;28;20029;-86